sensor_id;sensor_type;location;lat;lon;timestamp;pressure;altitude;pressure_sealevel;temperature;humidity
60019;BME280;45870;42.528;26.740;2023-05-09T00:00:36;100123.75;;;16.07;56.73
60019;BME280;45870;42.528;26.740;2023-05-09T00:03:02;100125.56;;;16.28;56.82
60019;BME280;45870;42.528;26.740;2023-05-09T00:05:30;100127.53;;;16.06;56.76
60019;BME280;45870;42.528;26.740;2023-05-09T00:07:56;100124.66;;;15.86;57.78
60019;BME280;45870;42.528;26.740;2023-05-09T00:10:22;100127.00;;;15.77;58.18
60019;BME280;45870;42.528;26.740;2023-05-09T00:12:47;100129.00;;;16.19;56.53
60019;BME280;45870;42.528;26.740;2023-05-09T00:15:14;100128.56;;;16.69;55.52
60019;BME280;45870;42.528;26.740;2023-05-09T00:17:40;100134.13;;;16.84;54.52
60019;BME280;45870;42.528;26.740;2023-05-09T00:20:07;100122.34;;;16.73;54.82
60019;BME280;45870;42.528;26.740;2023-05-09T00:22:36;100054.88;;;16.12;55.79
60019;BME280;45870;42.528;26.740;2023-05-09T00:25:02;100134.06;;;16.05;57.38
60019;BME280;45870;42.528;26.740;2023-05-09T00:27:28;100125.66;;;16.12;56.87
60019;BME280;45870;42.528;26.740;2023-05-09T00:29:55;100086.44;;;15.76;57.63
60019;BME280;45870;42.528;26.740;2023-05-09T00:32:21;100133.56;;;15.81;58.37
60019;BME280;45870;42.528;26.740;2023-05-09T00:34:46;100131.63;;;16.04;57.89
60019;BME280;45870;42.528;26.740;2023-05-09T00:37:12;100142.31;;;16.15;57.70
60019;BME280;45870;42.528;26.740;2023-05-09T00:39:38;100137.97;;;15.87;58.23
60019;BME280;45870;42.528;26.740;2023-05-09T00:42:03;100142.88;;;15.85;58.47
60019;BME280;45870;42.528;26.740;2023-05-09T00:44:29;100147.75;;;16.15;57.70
60019;BME280;45870;42.528;26.740;2023-05-09T00:46:54;100150.09;;;16.02;58.20
60019;BME280;45870;42.528;26.740;2023-05-09T00:49:20;100152.50;;;16.25;57.24
60019;BME280;45870;42.528;26.740;2023-05-09T00:51:46;100080.19;;;16.07;56.03
60019;BME280;45870;42.528;26.740;2023-05-09T00:54:12;100148.72;;;15.99;57.75
60019;BME280;45870;42.528;26.740;2023-05-09T00:56:38;100144.53;;;16.18;57.46
60019;BME280;45870;42.528;26.740;2023-05-09T00:59:04;100142.50;;;16.67;56.16
60019;BME280;45870;42.528;26.740;2023-05-09T01:01:32;100139.44;;;16.27;57.54
60019;BME280;45870;42.528;26.740;2023-05-09T01:03:58;100141.91;;;15.96;58.65
60019;BME280;45870;42.528;26.740;2023-05-09T01:09:17;100144.78;;;16.48;56.25
60019;BME280;45870;42.528;26.740;2023-05-09T01:14:39;100138.50;;;15.84;58.60
60019;BME280;45870;42.528;26.740;2023-05-09T01:17:16;100123.50;;;15.82;58.06
60019;BME280;45870;42.528;26.740;2023-05-09T01:20:02;100139.69;;;15.93;59.14
60019;BME280;45870;42.528;26.740;2023-05-09T01:22:36;100140.59;;;16.36;57.45
60019;BME280;45870;42.528;26.740;2023-05-09T01:25:35;100144.94;;;16.32;57.53
60019;BME280;45870;42.528;26.740;2023-05-09T01:30:49;100142.59;;;16.50;57.97
60019;BME280;45870;42.528;26.740;2023-05-09T01:33:17;100140.63;;;16.09;58.57
60019;BME280;45870;42.528;26.740;2023-05-09T01:35:50;99945.41;;;14.82;58.89
60019;BME280;45870;42.528;26.740;2023-05-09T01:38:21;100138.56;;;15.89;59.28
60019;BME280;45870;42.528;26.740;2023-05-09T01:40:52;100129.06;;;16.61;57.50
60019;BME280;45870;42.528;26.740;2023-05-09T01:43:18;100134.41;;;16.45;57.41
60019;BME280;45870;42.528;26.740;2023-05-09T01:45:47;100079.50;;;16.27;57.48
60019;BME280;45870;42.528;26.740;2023-05-09T01:48:14;99997.97;;;15.46;58.65
60019;BME280;45870;42.528;26.740;2023-05-09T01:50:42;100136.56;;;16.12;58.65
60019;BME280;45870;42.528;26.740;2023-05-09T01:53:10;100130.19;;;16.65;57.43
60019;BME280;45870;42.528;26.740;2023-05-09T01:55:38;100135.31;;;17.03;56.61
60019;BME280;45870;42.528;26.740;2023-05-09T01:58:05;100136.16;;;17.09;56.54
60019;BME280;45870;42.528;26.740;2023-05-09T02:00:33;100139.09;;;16.97;55.91
60019;BME280;45870;42.528;26.740;2023-05-09T02:03:00;100116.69;;;16.43;57.53
60019;BME280;45870;42.528;26.740;2023-05-09T02:05:28;100093.44;;;16.72;55.94
60019;BME280;45870;42.528;26.740;2023-05-09T02:07:54;100155.06;;;16.78;56.35
60019;BME280;45870;42.528;26.740;2023-05-09T02:10:24;100153.91;;;18.09;53.36
60019;BME280;45870;42.528;26.740;2023-05-09T02:12:51;100145.16;;;17.09;55.91
60019;BME280;45870;42.528;26.740;2023-05-09T02:15:17;100154.88;;;17.47;54.46
60019;BME280;45870;42.528;26.740;2023-05-09T02:17:43;100154.47;;;18.01;53.57
60019;BME280;45870;42.528;26.740;2023-05-09T02:20:09;100102.41;;;17.25;53.94
60019;BME280;45870;42.528;26.740;2023-05-09T02:22:36;100158.03;;;16.72;56.67
60019;BME280;45870;42.528;26.740;2023-05-09T02:25:04;100141.47;;;17.40;54.07
60019;BME280;45870;42.528;26.740;2023-05-09T02:27:33;100174.66;;;17.94;53.43
60019;BME280;45870;42.528;26.740;2023-05-09T02:30:02;100136.66;;;18.94;49.83
60019;BME280;45870;42.528;26.740;2023-05-09T02:32:33;100163.75;;;18.80;50.42
60019;BME280;45870;42.528;26.740;2023-05-09T02:35:00;100171.16;;;18.75;50.62
60019;BME280;45870;42.528;26.740;2023-05-09T02:37:26;100169.75;;;19.67;48.08
60019;BME280;45870;42.528;26.740;2023-05-09T02:39:53;100179.63;;;18.78;50.07
60019;BME280;45870;42.528;26.740;2023-05-09T02:42:25;100151.75;;;18.16;51.09
60019;BME280;45870;42.528;26.740;2023-05-09T02:44:51;100182.63;;;18.72;50.66
60019;BME280;45870;42.528;26.740;2023-05-09T02:47:18;100174.09;;;17.15;54.84
60019;BME280;45870;42.528;26.740;2023-05-09T02:49:43;100173.59;;;17.23;54.95
60019;BME280;45870;42.528;26.740;2023-05-09T02:52:09;100099.84;;;16.98;54.43
60019;BME280;45870;42.528;26.740;2023-05-09T02:54:38;100179.06;;;17.28;54.85
60019;BME280;45870;42.528;26.740;2023-05-09T02:57:04;100190.22;;;17.17;55.38
60019;BME280;45870;42.528;26.740;2023-05-09T02:59:30;100163.97;;;17.11;55.20
60019;BME280;45870;42.528;26.740;2023-05-09T03:01:56;100182.06;;;18.09;52.85
60019;BME280;45870;42.528;26.740;2023-05-09T03:04:22;100164.31;;;16.09;57.20
60019;BME280;45870;42.528;26.740;2023-05-09T03:06:47;100183.81;;;16.96;55.44
60019;BME280;45870;42.528;26.740;2023-05-09T03:09:13;100186.03;;;16.99;54.98
60019;BME280;45870;42.528;26.740;2023-05-09T03:11:39;100195.09;;;17.77;52.65
60019;BME280;45870;42.528;26.740;2023-05-09T03:14:05;100188.81;;;17.71;53.39
60019;BME280;45870;42.528;26.740;2023-05-09T03:16:33;100180.63;;;17.14;54.13
60019;BME280;45870;42.528;26.740;2023-05-09T03:18:59;100200.78;;;17.60;53.73
60019;BME280;45870;42.528;26.740;2023-05-09T03:21:24;100184.06;;;17.41;53.96
60019;BME280;45870;42.528;26.740;2023-05-09T03:23:50;100208.03;;;16.87;55.27
60019;BME280;45870;42.528;26.740;2023-05-09T03:26:16;100203.97;;;16.90;55.55
60019;BME280;45870;42.528;26.740;2023-05-09T03:28:42;100210.59;;;17.04;55.68
60019;BME280;45870;42.528;26.740;2023-05-09T03:31:07;100213.34;;;16.40;56.97
60019;BME280;45870;42.528;26.740;2023-05-09T03:33:33;100196.38;;;16.02;57.59
60019;BME280;45870;42.528;26.740;2023-05-09T03:35:59;100224.34;;;15.92;58.62
60019;BME280;45870;42.528;26.740;2023-05-09T03:38:25;100223.09;;;16.05;58.02
60019;BME280;45870;42.528;26.740;2023-05-09T03:40:52;100224.03;;;16.47;56.71
60019;BME280;45870;42.528;26.740;2023-05-09T03:43:18;100055.59;;;15.65;56.58
60019;BME280;45870;42.528;26.740;2023-05-09T03:45:44;100225.84;;;16.36;57.33
60019;BME280;45870;42.528;26.740;2023-05-09T03:48:10;100219.56;;;16.04;58.07
60019;BME280;45870;42.528;26.740;2023-05-09T03:50:36;100229.72;;;16.67;56.31
60019;BME280;45870;42.528;26.740;2023-05-09T03:53:02;100236.53;;;16.11;57.81
60019;BME280;45870;42.528;26.740;2023-05-09T03:55:28;100183.38;;;16.40;56.32
60019;BME280;45870;42.528;26.740;2023-05-09T03:57:54;100238.47;;;16.74;55.90
60019;BME280;45870;42.528;26.740;2023-05-09T04:00:20;100227.19;;;16.61;56.04
60019;BME280;45870;42.528;26.740;2023-05-09T04:02:48;100244.50;;;17.18;54.93
60019;BME280;45870;42.528;26.740;2023-05-09T04:05:14;100231.53;;;17.45;53.72
60019;BME280;45870;42.528;26.740;2023-05-09T04:07:40;100176.19;;;16.98;53.94
60019;BME280;45870;42.528;26.740;2023-05-09T04:10:07;100246.75;;;16.84;54.63
60019;BME280;45870;42.528;26.740;2023-05-09T04:12:33;100249.03;;;18.12;52.09
60019;BME280;45870;42.528;26.740;2023-05-09T04:14:58;100175.72;;;17.06;53.26
60019;BME280;45870;42.528;26.740;2023-05-09T04:17:24;100249.72;;;17.77;52.97
60019;BME280;45870;42.528;26.740;2023-05-09T04:19:50;100251.00;;;17.12;54.37
60019;BME280;45870;42.528;26.740;2023-05-09T04:22:16;100232.09;;;16.05;57.06
60019;BME280;45870;42.528;26.740;2023-05-09T04:24:41;100251.38;;;16.25;56.98
60019;BME280;45870;42.528;26.740;2023-05-09T04:27:07;100258.78;;;16.88;55.43
60019;BME280;45870;42.528;26.740;2023-05-09T04:29:33;100258.94;;;16.77;55.38
60019;BME280;45870;42.528;26.740;2023-05-09T04:31:59;100255.88;;;16.68;55.95
60019;BME280;45870;42.528;26.740;2023-05-09T04:34:26;100256.13;;;16.40;56.13
60019;BME280;45870;42.528;26.740;2023-05-09T04:36:52;100258.13;;;16.76;55.59
60019;BME280;45870;42.528;26.740;2023-05-09T04:39:18;100212.50;;;15.81;56.84
60019;BME280;45870;42.528;26.740;2023-05-09T04:41:46;100259.84;;;16.87;54.96
60019;BME280;45870;42.528;26.740;2023-05-09T04:44:14;100272.59;;;17.19;54.61
60019;BME280;45870;42.528;26.740;2023-05-09T04:46:40;100266.03;;;16.78;55.59
60019;BME280;45870;42.528;26.740;2023-05-09T04:49:05;100265.97;;;16.14;57.44
60019;BME280;45870;42.528;26.740;2023-05-09T04:51:31;100267.22;;;16.28;57.08
60019;BME280;45870;42.528;26.740;2023-05-09T04:53:57;100269.19;;;16.65;56.35
60019;BME280;45870;42.528;26.740;2023-05-09T04:56:23;100270.66;;;17.14;54.80
60019;BME280;45870;42.528;26.740;2023-05-09T04:58:49;100271.81;;;17.70;53.09
60019;BME280;45870;42.528;26.740;2023-05-09T05:01:15;100276.13;;;16.50;56.22
60019;BME280;45870;42.528;26.740;2023-05-09T05:03:41;100273.41;;;15.97;57.27
60019;BME280;45870;42.528;26.740;2023-05-09T05:06:07;100261.56;;;16.98;53.63
60019;BME280;45870;42.528;26.740;2023-05-09T05:08:33;100278.72;;;16.35;56.81
60019;BME280;45870;42.528;26.740;2023-05-09T05:10:58;100259.84;;;15.80;57.98
60019;BME280;45870;42.528;26.740;2023-05-09T05:13:24;100286.78;;;16.25;57.23
60019;BME280;45870;42.528;26.740;2023-05-09T05:15:50;100289.31;;;16.59;55.95
60019;BME280;45870;42.528;26.740;2023-05-09T05:18:16;100298.44;;;16.47;56.04
60019;BME280;45870;42.528;26.740;2023-05-09T05:20:42;100293.84;;;15.78;57.65
60019;BME280;45870;42.528;26.740;2023-05-09T05:23:08;100295.41;;;14.80;60.48
60019;BME280;45870;42.528;26.740;2023-05-09T05:25:34;100284.13;;;15.05;59.56
60019;BME280;45870;42.528;26.740;2023-05-09T05:28:00;100291.94;;;15.02;60.15
60019;BME280;45870;42.528;26.740;2023-05-09T05:30:26;100244.50;;;15.09;60.04
60019;BME280;45870;42.528;26.740;2023-05-09T05:32:52;100289.00;;;15.58;59.45
60019;BME280;45870;42.528;26.740;2023-05-09T05:35:18;100288.34;;;15.73;58.01
60019;BME280;45870;42.528;26.740;2023-05-09T05:37:46;100285.69;;;15.39;59.27
60019;BME280;45870;42.528;26.740;2023-05-09T05:40:17;100297.09;;;15.96;57.51
60019;BME280;45870;42.528;26.740;2023-05-09T05:42:42;100296.59;;;16.26;57.37
60019;BME280;45870;42.528;26.740;2023-05-09T05:45:08;100290.50;;;15.92;58.35
60019;BME280;45870;42.528;26.740;2023-05-09T05:47:35;100296.63;;;15.06;59.98
60019;BME280;45870;42.528;26.740;2023-05-09T05:50:04;100303.72;;;15.84;57.60
60019;BME280;45870;42.528;26.740;2023-05-09T05:52:37;100306.03;;;14.65;61.12
60019;BME280;45870;42.528;26.740;2023-05-09T05:55:03;100318.44;;;14.78;60.84
60019;BME280;45870;42.528;26.740;2023-05-09T05:57:29;100316.34;;;14.80;61.02
60019;BME280;45870;42.528;26.740;2023-05-09T05:59:55;100301.81;;;15.84;58.11
60019;BME280;45870;42.528;26.740;2023-05-09T06:02:21;100306.53;;;14.79;60.21
60019;BME280;45870;42.528;26.740;2023-05-09T06:04:46;100316.31;;;15.13;59.50
60019;BME280;45870;42.528;26.740;2023-05-09T06:07:13;100278.97;;;15.64;57.27
60019;BME280;45870;42.528;26.740;2023-05-09T06:09:39;100315.44;;;16.06;56.14
60019;BME280;45870;42.528;26.740;2023-05-09T06:12:05;100313.91;;;16.95;54.81
60019;BME280;45870;42.528;26.740;2023-05-09T06:14:31;100310.13;;;16.43;55.85
60019;BME280;45870;42.528;26.740;2023-05-09T06:16:57;100308.16;;;16.60;55.51
60019;BME280;45870;42.528;26.740;2023-05-09T06:19:23;100308.59;;;16.25;55.48
60019;BME280;45870;42.528;26.740;2023-05-09T06:21:49;100313.94;;;17.01;54.33
60019;BME280;45870;42.528;26.740;2023-05-09T06:24:14;100316.34;;;16.38;54.95
60019;BME280;45870;42.528;26.740;2023-05-09T06:26:40;100310.75;;;17.14;53.21
60019;BME280;45870;42.528;26.740;2023-05-09T06:29:06;100323.47;;;16.18;56.19
60019;BME280;45870;42.528;26.740;2023-05-09T06:31:33;100310.94;;;15.73;55.12
60019;BME280;45870;42.528;26.740;2023-05-09T06:34:06;100315.06;;;15.21;56.56
60019;BME280;45870;42.528;26.740;2023-05-09T06:36:33;100323.03;;;16.04;55.36
60019;BME280;45870;42.528;26.740;2023-05-09T06:38:59;100305.38;;;16.33;54.26
60019;BME280;45870;42.528;26.740;2023-05-09T06:41:25;100317.19;;;17.39;51.70
60019;BME280;45870;42.528;26.740;2023-05-09T06:43:51;100304.38;;;16.98;52.24
60019;BME280;45870;42.528;26.740;2023-05-09T06:46:17;100328.75;;;18.04;50.22
60019;BME280;45870;42.528;26.740;2023-05-09T06:48:43;100325.97;;;16.73;52.79
60019;BME280;45870;42.528;26.740;2023-05-09T06:51:09;100320.50;;;16.46;53.27
60019;BME280;45870;42.528;26.740;2023-05-09T06:53:36;100317.19;;;16.17;53.41
60019;BME280;45870;42.528;26.740;2023-05-09T06:56:02;100241.59;;;15.76;53.96
60019;BME280;45870;42.528;26.740;2023-05-09T06:58:27;100321.38;;;16.78;52.22
60019;BME280;45870;42.528;26.740;2023-05-09T07:00:53;100321.13;;;16.05;54.21
60019;BME280;45870;42.528;26.740;2023-05-09T07:03:19;100323.03;;;16.79;53.18
60019;BME280;45870;42.528;26.740;2023-05-09T07:05:45;100329.28;;;17.54;51.50
60019;BME280;45870;42.528;26.740;2023-05-09T07:08:10;100328.59;;;16.63;52.70
60019;BME280;45870;42.528;26.740;2023-05-09T07:10:36;100330.22;;;16.15;54.27
60019;BME280;45870;42.528;26.740;2023-05-09T07:13:03;100326.91;;;17.20;51.82
60019;BME280;45870;42.528;26.740;2023-05-09T07:15:29;100321.06;;;17.43;50.56
60019;BME280;45870;42.528;26.740;2023-05-09T07:17:54;100288.03;;;16.71;50.94
60019;BME280;45870;42.528;26.740;2023-05-09T07:20:20;100324.03;;;19.07;46.68
60019;BME280;45870;42.528;26.740;2023-05-09T07:22:46;100315.28;;;19.10;48.10
60019;BME280;45870;42.528;26.740;2023-05-09T07:25:11;100324.00;;;19.22;46.01
60019;BME280;45870;42.528;26.740;2023-05-09T07:27:37;100320.72;;;19.30;45.40
60019;BME280;45870;42.528;26.740;2023-05-09T07:30:03;100314.56;;;21.73;42.32
60019;BME280;45870;42.528;26.740;2023-05-09T07:32:30;100320.16;;;20.32;43.57
60019;BME280;45870;42.528;26.740;2023-05-09T07:34:55;100316.38;;;20.62;45.00
60019;BME280;45870;42.528;26.740;2023-05-09T07:37:21;100327.00;;;20.25;43.70
60019;BME280;45870;42.528;26.740;2023-05-09T07:39:47;100318.31;;;20.08;43.37
60019;BME280;45870;42.528;26.740;2023-05-09T07:42:12;100328.34;;;18.47;47.66
60019;BME280;45870;42.528;26.740;2023-05-09T07:44:38;100320.44;;;19.21;46.30
60019;BME280;45870;42.528;26.740;2023-05-09T07:47:04;100324.56;;;18.53;45.57
60019;BME280;45870;42.528;26.740;2023-05-09T07:49:33;100321.56;;;18.95;46.18
60019;BME280;45870;42.528;26.740;2023-05-09T07:51:59;100320.44;;;18.56;46.81
60019;BME280;45870;42.528;26.740;2023-05-09T07:54:24;100335.78;;;19.42;47.05
60019;BME280;45870;42.528;26.740;2023-05-09T07:56:50;100319.38;;;19.22;45.95
60019;BME280;45870;42.528;26.740;2023-05-09T07:59:16;100324.31;;;18.85;45.93
60019;BME280;45870;42.528;26.740;2023-05-09T08:01:43;100339.94;;;20.68;42.91
60019;BME280;45870;42.528;26.740;2023-05-09T08:04:08;100326.22;;;18.79;45.47
60019;BME280;45870;42.528;26.740;2023-05-09T08:06:34;100313.59;;;19.34;45.13
60019;BME280;45870;42.528;26.740;2023-05-09T08:09:00;100333.59;;;19.29;46.06
60019;BME280;45870;42.528;26.740;2023-05-09T08:11:26;100335.53;;;18.99;46.73
60019;BME280;45870;42.528;26.740;2023-05-09T08:13:52;100331.88;;;19.79;44.74
60019;BME280;45870;42.528;26.740;2023-05-09T08:16:18;100332.13;;;20.85;41.02
60019;BME280;45870;42.528;26.740;2023-05-09T08:18:44;100271.34;;;19.70;43.39
60019;BME280;45870;42.528;26.740;2023-05-09T08:21:10;100320.28;;;19.97;46.17
60019;BME280;45870;42.528;26.740;2023-05-09T08:23:36;100316.63;;;18.72;46.38
60019;BME280;45870;42.528;26.740;2023-05-09T08:26:01;100320.19;;;19.13;48.83
60019;BME280;45870;42.528;26.740;2023-05-09T08:28:27;100314.84;;;20.46;44.74
60019;BME280;45870;42.528;26.740;2023-05-09T08:30:54;100311.44;;;21.32;40.70
60019;BME280;45870;42.528;26.740;2023-05-09T08:33:21;100313.88;;;20.17;43.14
60019;BME280;45870;42.528;26.740;2023-05-09T08:35:50;100310.13;;;20.90;43.93
60019;BME280;45870;42.528;26.740;2023-05-09T08:38:16;100292.34;;;21.46;40.94
60019;BME280;45870;42.528;26.740;2023-05-09T08:40:42;100309.72;;;20.34;43.89
60019;BME280;45870;42.528;26.740;2023-05-09T08:43:08;100306.03;;;20.54;43.32
60019;BME280;45870;42.528;26.740;2023-05-09T08:45:36;100306.06;;;20.83;43.62
60019;BME280;45870;42.528;26.740;2023-05-09T08:48:05;100308.09;;;20.33;44.12
60019;BME280;45870;42.528;26.740;2023-05-09T08:50:31;100315.34;;;20.58;41.58
60019;BME280;45870;42.528;26.740;2023-05-09T08:52:57;100308.06;;;20.72;40.39
60019;BME280;45870;42.528;26.740;2023-05-09T08:55:23;100311.06;;;19.73;45.14
60019;BME280;45870;42.528;26.740;2023-05-09T08:57:51;100313.38;;;20.10;43.55
60019;BME280;45870;42.528;26.740;2023-05-09T09:00:17;100310.28;;;19.57;46.01
60019;BME280;45870;42.528;26.740;2023-05-09T09:02:45;100309.78;;;20.14;43.34
60019;BME280;45870;42.528;26.740;2023-05-09T09:05:11;100312.25;;;21.32;41.31
60019;BME280;45870;42.528;26.740;2023-05-09T09:07:37;100259.75;;;20.42;41.21
60019;BME280;45870;42.528;26.740;2023-05-09T09:10:06;100299.03;;;20.33;41.33
60019;BME280;45870;42.528;26.740;2023-05-09T09:12:33;100296.19;;;20.48;40.53
60019;BME280;45870;42.528;26.740;2023-05-09T09:15:04;100300.19;;;20.17;42.56
60019;BME280;45870;42.528;26.740;2023-05-09T09:17:32;100299.66;;;20.64;41.94
60019;BME280;45870;42.528;26.740;2023-05-09T09:20:02;100284.03;;;20.15;41.58
60019;BME280;45870;42.528;26.740;2023-05-09T09:22:33;100302.25;;;19.86;42.38
60019;BME280;45870;42.528;26.740;2023-05-09T09:25:00;100273.91;;;20.11;41.69
60019;BME280;45870;42.528;26.740;2023-05-09T09:27:26;100299.94;;;19.09;43.43
60019;BME280;45870;42.528;26.740;2023-05-09T09:29:52;100296.00;;;19.80;42.09
60019;BME280;45870;42.528;26.740;2023-05-09T09:32:18;100296.41;;;18.73;45.10
60019;BME280;45870;42.528;26.740;2023-05-09T09:34:48;100283.75;;;19.42;43.48
60019;BME280;45870;42.528;26.740;2023-05-09T09:37:22;100293.22;;;19.85;43.41
60019;BME280;45870;42.528;26.740;2023-05-09T09:39:54;100276.66;;;19.26;43.43
60019;BME280;45870;42.528;26.740;2023-05-09T09:42:20;100295.81;;;20.16;43.22
60019;BME280;45870;42.528;26.740;2023-05-09T09:47:33;100287.06;;;19.34;44.19
60019;BME280;45870;42.528;26.740;2023-05-09T09:52:54;100285.69;;;19.37;44.17
60019;BME280;45870;42.528;26.740;2023-05-09T09:55:22;100296.94;;;20.59;41.73
60019;BME280;45870;42.528;26.740;2023-05-09T09:57:49;100293.94;;;18.91;44.95
60019;BME280;45870;42.528;26.740;2023-05-09T10:00:16;100296.63;;;19.32;44.39
60019;BME280;45870;42.528;26.740;2023-05-09T10:02:49;100292.16;;;18.05;46.37
60019;BME280;45870;42.528;26.740;2023-05-09T10:05:26;100304.59;;;18.83;45.04
60019;BME280;45870;42.528;26.740;2023-05-09T10:07:58;100301.06;;;18.77;46.72
60019;BME280;45870;42.528;26.740;2023-05-09T10:10:32;100293.34;;;20.14;45.34
60019;BME280;45870;42.528;26.740;2023-05-09T10:13:07;100290.88;;;21.77;40.75
60019;BME280;45870;42.528;26.740;2023-05-09T10:15:35;100303.22;;;21.32;41.81
60019;BME280;45870;42.528;26.740;2023-05-09T10:18:02;100287.25;;;23.72;38.05
60019;BME280;45870;42.528;26.740;2023-05-09T10:20:33;100293.16;;;23.52;37.85
60019;BME280;45870;42.528;26.740;2023-05-09T10:23:03;100288.25;;;22.52;35.88
60019;BME280;45870;42.528;26.740;2023-05-09T10:25:42;100288.16;;;22.38;38.75
60019;BME280;45870;42.528;26.740;2023-05-09T10:28:12;100279.34;;;22.92;36.39
60019;BME280;45870;42.528;26.740;2023-05-09T10:30:49;100283.69;;;20.71;41.17
60019;BME280;45870;42.528;26.740;2023-05-09T10:33:28;100280.59;;;21.11;39.83
60019;BME280;45870;42.528;26.740;2023-05-09T10:35:57;100282.56;;;21.82;39.66
60019;BME280;45870;42.528;26.740;2023-05-09T10:38:24;100274.66;;;20.26;44.25
60019;BME280;45870;42.528;26.740;2023-05-09T10:40:49;100278.63;;;19.95;43.25
60019;BME280;45870;42.528;26.740;2023-05-09T10:43:15;100281.19;;;20.40;41.47
60019;BME280;45870;42.528;26.740;2023-05-09T10:45:42;100269.03;;;18.98;45.55
60019;BME280;45870;42.528;26.740;2023-05-09T10:48:10;100278.91;;;18.99;45.27
60019;BME280;45870;42.528;26.740;2023-05-09T10:50:36;100281.06;;;18.97;45.60
60019;BME280;45870;42.528;26.740;2023-05-09T10:55:55;100281.09;;;18.82;47.07
60019;BME280;45870;42.528;26.740;2023-05-09T10:58:32;100277.75;;;18.44;47.98
60019;BME280;45870;42.528;26.740;2023-05-09T11:01:03;100282.53;;;17.92;47.74
60019;BME280;45870;42.528;26.740;2023-05-09T11:03:53;100296.81;;;17.10;51.78
60019;BME280;45870;42.528;26.740;2023-05-09T11:11:56;100299.16;;;17.75;50.98
60019;BME280;45870;42.528;26.740;2023-05-09T11:14:47;100278.69;;;17.36;51.36
60019;BME280;45870;42.528;26.740;2023-05-09T11:17:25;100308.47;;;17.42;51.07
60019;BME280;45870;42.528;26.740;2023-05-09T11:22:22;100300.16;;;16.85;50.98
60019;BME280;45870;42.528;26.740;2023-05-09T11:30:08;100315.06;;;17.46;51.34
60019;BME280;45870;42.528;26.740;2023-05-09T11:35:15;100280.28;;;17.74;49.46
60019;BME280;45870;42.528;26.740;2023-05-09T11:40:27;100301.19;;;17.11;51.80
60019;BME280;45870;42.528;26.740;2023-05-09T11:42:55;100297.16;;;17.61;50.47
60019;BME280;45870;42.528;26.740;2023-05-09T11:45:22;100232.63;;;16.97;50.95
60019;BME280;45870;42.528;26.740;2023-05-09T11:47:49;100296.75;;;16.68;51.83
60019;BME280;45870;42.528;26.740;2023-05-09T11:50:17;100294.72;;;17.22;50.08
60019;BME280;45870;42.528;26.740;2023-05-09T11:52:45;100299.94;;;17.29;50.68
60019;BME280;45870;42.528;26.740;2023-05-09T11:55:14;100299.13;;;17.28;50.51
60019;BME280;45870;42.528;26.740;2023-05-09T11:57:47;100308.13;;;17.24;50.61
60019;BME280;45870;42.528;26.740;2023-05-09T12:00:16;100305.69;;;17.74;50.63
60019;BME280;45870;42.528;26.740;2023-05-09T12:02:43;100280.59;;;16.88;51.69
60019;BME280;45870;42.528;26.740;2023-05-09T12:05:12;100282.41;;;16.51;51.76
60019;BME280;45870;42.528;26.740;2023-05-09T12:07:39;100309.47;;;17.68;51.12
60019;BME280;45870;42.528;26.740;2023-05-09T12:10:09;100264.94;;;17.16;50.51
60019;BME280;45870;42.528;26.740;2023-05-09T12:12:40;100298.09;;;16.97;51.80
60019;BME280;45870;42.528;26.740;2023-05-09T12:15:07;100104.69;;;16.86;49.71
60019;BME280;45870;42.528;26.740;2023-05-09T12:17:34;100298.97;;;18.02;48.40
60019;BME280;45870;42.528;26.740;2023-05-09T12:20:00;100265.06;;;17.98;48.15
60019;BME280;45870;42.528;26.740;2023-05-09T12:22:28;100279.38;;;18.30;47.73
60019;BME280;45870;42.528;26.740;2023-05-09T12:24:55;100282.47;;;18.64;47.80
60019;BME280;45870;42.528;26.740;2023-05-09T12:27:22;100297.94;;;18.23;47.40
60019;BME280;45870;42.528;26.740;2023-05-09T12:29:48;100285.00;;;17.88;48.41
60019;BME280;45870;42.528;26.740;2023-05-09T12:32:14;100279.72;;;18.74;47.54
60019;BME280;45870;42.528;26.740;2023-05-09T12:34:41;100273.91;;;18.30;47.39
60019;BME280;45870;42.528;26.740;2023-05-09T12:37:17;100281.56;;;18.33;47.81
60019;BME280;45870;42.528;26.740;2023-05-09T12:40:02;100284.63;;;19.13;46.91
60019;BME280;45870;42.528;26.740;2023-05-09T12:42:30;100277.19;;;19.43;45.51
60019;BME280;45870;42.528;26.740;2023-05-09T12:44:56;100283.16;;;19.61;44.71
60019;BME280;45870;42.528;26.740;2023-05-09T12:47:25;100276.41;;;19.18;45.86
60019;BME280;45870;42.528;26.740;2023-05-09T12:49:51;100265.97;;;19.30;47.05
60019;BME280;45870;42.528;26.740;2023-05-09T12:52:18;100272.06;;;20.01;45.64
60019;BME280;45870;42.528;26.740;2023-05-09T12:54:47;100271.72;;;19.38;46.64
60019;BME280;45870;42.528;26.740;2023-05-09T12:57:22;100268.28;;;20.75;43.78
60019;BME280;45870;42.528;26.740;2023-05-09T12:59:48;100275.63;;;20.51;42.49
60019;BME280;45870;42.528;26.740;2023-05-09T13:02:13;100273.00;;;20.30;43.41
60019;BME280;45870;42.528;26.740;2023-05-09T13:04:41;100270.16;;;21.08;41.64
60019;BME280;45870;42.528;26.740;2023-05-09T13:07:08;100262.84;;;20.31;43.68
60019;BME280;45870;42.528;26.740;2023-05-09T13:09:35;100264.25;;;20.62;43.20
60019;BME280;45870;42.528;26.740;2023-05-09T13:12:04;100268.38;;;20.65;43.05
60019;BME280;45870;42.528;26.740;2023-05-09T13:14:30;100262.34;;;20.19;43.30
60019;BME280;45870;42.528;26.740;2023-05-09T13:16:55;100261.81;;;21.23;41.41